sensor_id;sensor_type;location;lat;lon;timestamp;P1;durP1;ratioP1;P2;durP2;ratioP2
49572;SDS011;35476;52.466;13.364;2023-01-09T00:00:34;23.73;;;13.82;;
49572;SDS011;35476;52.466;13.364;2023-01-09T00:02:59;17.40;;;13.70;;
49572;SDS011;35476;52.466;13.364;2023-01-09T00:05:24;20.30;;;15.20;;
49572;SDS011;35476;52.466;13.364;2023-01-09T00:07:50;21.45;;;16.23;;
49572;SDS011;35476;52.466;13.364;2023-01-09T00:10:15;25.53;;;16.03;;
49572;SDS011;35476;52.466;13.364;2023-01-09T00:12:40;21.85;;;15.55;;
49572;SDS011;35476;52.466;13.364;2023-01-09T00:15:06;19.55;;;14.50;;
49572;SDS011;35476;52.466;13.364;2023-01-09T00:17:31;20.35;;;14.88;;
49572;SDS011;35476;52.466;13.364;2023-01-09T00:19:56;21.10;;;15.13;;
49572;SDS011;35476;52.466;13.364;2023-01-09T00:22:22;23.40;;;16.17;;
49572;SDS011;35476;52.466;13.364;2023-01-09T00:24:47;23.20;;;15.25;;
49572;SDS011;35476;52.466;13.364;2023-01-09T00:27:12;25.93;;;18.27;;
49572;SDS011;35476;52.466;13.364;2023-01-09T00:29:38;23.83;;;16.80;;
49572;SDS011;35476;52.466;13.364;2023-01-09T00:32:05;22.20;;;17.13;;
49572;SDS011;35476;52.466;13.364;2023-01-09T00:34:34;24.48;;;16.73;;
49572;SDS011;35476;52.466;13.364;2023-01-09T00:37:01;23.10;;;17.05;;
49572;SDS011;35476;52.466;13.364;2023-01-09T00:39:26;26.17;;;16.63;;
49572;SDS011;35476;52.466;13.364;2023-01-09T00:41:52;20.70;;;15.97;;
49572;SDS011;35476;52.466;13.364;2023-01-09T00:44:20;25.63;;;17.38;;
49572;SDS011;35476;52.466;13.364;2023-01-09T00:46:47;19.83;;;15.57;;
49572;SDS011;35476;52.466;13.364;2023-01-09T00:49:13;24.83;;;17.30;;
49572;SDS011;35476;52.466;13.364;2023-01-09T00:51:39;24.83;;;16.23;;
49572;SDS011;35476;52.466;13.364;2023-01-09T00:54:05;24.20;;;17.00;;
49572;SDS011;35476;52.466;13.364;2023-01-09T00:56:30;21.48;;;16.52;;
49572;SDS011;35476;52.466;13.364;2023-01-09T00:58:56;26.77;;;19.83;;
49572;SDS011;35476;52.466;13.364;2023-01-09T01:01:21;22.80;;;17.48;;
49572;SDS011;35476;52.466;13.364;2023-01-09T01:03:46;23.65;;;17.65;;
49572;SDS011;35476;52.466;13.364;2023-01-09T01:06:12;24.05;;;17.15;;
49572;SDS011;35476;52.466;13.364;2023-01-09T01:08:56;23.95;;;16.67;;
49572;SDS011;35476;52.466;13.364;2023-01-09T01:11:21;26.25;;;18.10;;
49572;SDS011;35476;52.466;13.364;2023-01-09T01:13:46;24.52;;;17.25;;
49572;SDS011;35476;52.466;13.364;2023-01-09T01:16:12;24.43;;;17.10;;
49572;SDS011;35476;52.466;13.364;2023-01-09T01:18:37;27.65;;;17.98;;
49572;SDS011;35476;52.466;13.364;2023-01-09T01:21:06;26.60;;;17.23;;
49572;SDS011;35476;52.466;13.364;2023-01-09T01:23:32;23.98;;;18.60;;
49572;SDS011;35476;52.466;13.364;2023-01-09T01:26:02;23.23;;;17.30;;
49572;SDS011;35476;52.466;13.364;2023-01-09T01:28:27;23.42;;;16.83;;
49572;SDS011;35476;52.466;13.364;2023-01-09T01:30:52;27.93;;;18.50;;
49572;SDS011;35476;52.466;13.364;2023-01-09T01:33:17;27.07;;;19.80;;
49572;SDS011;35476;52.466;13.364;2023-01-09T01:35:43;24.77;;;17.10;;
49572;SDS011;35476;52.466;13.364;2023-01-09T01:38:08;25.53;;;17.73;;
49572;SDS011;35476;52.466;13.364;2023-01-09T01:40:33;24.40;;;17.87;;
49572;SDS011;35476;52.466;13.364;2023-01-09T01:42:58;34.95;;;21.40;;
49572;SDS011;35476;52.466;13.364;2023-01-09T01:45:27;25.63;;;17.55;;
49572;SDS011;35476;52.466;13.364;2023-01-09T01:52:44;31.53;;;20.63;;
49572;SDS011;35476;52.466;13.364;2023-01-09T01:55:12;33.78;;;21.77;;
49572;SDS011;35476;52.466;13.364;2023-01-09T01:57:38;27.52;;;20.33;;
49572;SDS011;35476;52.466;13.364;2023-01-09T02:00:04;31.00;;;21.58;;
49572;SDS011;35476;52.466;13.364;2023-01-09T02:02:30;32.03;;;22.08;;
49572;SDS011;35476;52.466;13.364;2023-01-09T02:04:57;31.40;;;21.70;;
49572;SDS011;35476;52.466;13.364;2023-01-09T02:07:23;30.38;;;21.67;;
49572;SDS011;35476;52.466;13.364;2023-01-09T02:09:48;39.08;;;23.73;;
49572;SDS011;35476;52.466;13.364;2023-01-09T02:12:24;34.40;;;22.20;;
49572;SDS011;35476;52.466;13.364;2023-01-09T02:15:11;36.78;;;23.80;;
49572;SDS011;35476;52.466;13.364;2023-01-09T02:17:57;31.23;;;21.98;;
49572;SDS011;35476;52.466;13.364;2023-01-09T02:23:20;31.42;;;22.02;;
49572;SDS011;35476;52.466;13.364;2023-01-09T02:31:14;37.88;;;24.00;;
49572;SDS011;35476;52.466;13.364;2023-01-09T02:36:28;33.90;;;22.65;;
49572;SDS011;35476;52.466;13.364;2023-01-09T02:38:58;35.42;;;22.95;;
49572;SDS011;35476;52.466;13.364;2023-01-09T02:41:30;34.60;;;22.50;;
49572;SDS011;35476;52.466;13.364;2023-01-09T02:46:44;32.97;;;22.90;;
49572;SDS011;35476;52.466;13.364;2023-01-09T02:49:09;34.28;;;22.13;;
49572;SDS011;35476;52.466;13.364;2023-01-09T02:51:35;33.00;;;23.58;;
49572;SDS011;35476;52.466;13.364;2023-01-09T02:56:34;34.78;;;24.15;;
49572;SDS011;35476;52.466;13.364;2023-01-09T03:06:51;34.83;;;22.83;;
49572;SDS011;35476;52.466;13.364;2023-01-09T03:09:19;34.72;;;26.15;;
49572;SDS011;35476;52.466;13.364;2023-01-09T03:11:47;36.40;;;24.35;;
49572;SDS011;35476;52.466;13.364;2023-01-09T03:14:15;37.78;;;25.15;;
49572;SDS011;35476;52.466;13.364;2023-01-09T03:16:40;31.35;;;23.90;;
49572;SDS011;35476;52.466;13.364;2023-01-09T03:19:07;38.50;;;25.13;;
49572;SDS011;35476;52.466;13.364;2023-01-09T03:21:35;33.63;;;23.10;;
49572;SDS011;35476;52.466;13.364;2023-01-09T03:24:01;40.80;;;26.38;;
49572;SDS011;35476;52.466;13.364;2023-01-09T03:26:27;43.03;;;28.80;;
49572;SDS011;35476;52.466;13.364;2023-01-09T03:28:56;38.33;;;27.77;;
49572;SDS011;35476;52.466;13.364;2023-01-09T03:31:21;38.47;;;25.85;;
49572;SDS011;35476;52.466;13.364;2023-01-09T03:33:46;41.83;;;27.88;;
49572;SDS011;35476;52.466;13.364;2023-01-09T03:36:13;37.15;;;25.98;;
49572;SDS011;35476;52.466;13.364;2023-01-09T03:38:38;37.90;;;25.33;;
49572;SDS011;35476;52.466;13.364;2023-01-09T03:41:04;40.15;;;28.15;;
49572;SDS011;35476;52.466;13.364;2023-01-09T03:43:29;37.08;;;26.33;;
49572;SDS011;35476;52.466;13.364;2023-01-09T03:45:55;32.00;;;24.40;;
49572;SDS011;35476;52.466;13.364;2023-01-09T03:48:20;32.67;;;23.30;;
49572;SDS011;35476;52.466;13.364;2023-01-09T03:50:49;36.10;;;25.43;;
49572;SDS011;35476;52.466;13.364;2023-01-09T03:53:14;31.80;;;24.33;;
49572;SDS011;35476;52.466;13.364;2023-01-09T03:55:42;35.17;;;25.50;;
49572;SDS011;35476;52.466;13.364;2023-01-09T03:58:07;32.42;;;24.25;;
49572;SDS011;35476;52.466;13.364;2023-01-09T04:00:33;37.83;;;25.00;;
49572;SDS011;35476;52.466;13.364;2023-01-09T04:02:58;32.15;;;23.98;;
49572;SDS011;35476;52.466;13.364;2023-01-09T04:05:23;32.10;;;24.37;;
49572;SDS011;35476;52.466;13.364;2023-01-09T04:07:48;38.47;;;24.70;;
49572;SDS011;35476;52.466;13.364;2023-01-09T04:10:14;32.10;;;24.13;;
49572;SDS011;35476;52.466;13.364;2023-01-09T04:12:39;32.55;;;24.33;;
49572;SDS011;35476;52.466;13.364;2023-01-09T04:15:04;30.83;;;23.73;;
49572;SDS011;35476;52.466;13.364;2023-01-09T04:17:30;31.08;;;24.67;;
49572;SDS011;35476;52.466;13.364;2023-01-09T04:19:55;30.73;;;23.87;;
49572;SDS011;35476;52.466;13.364;2023-01-09T04:22:20;30.63;;;23.17;;
49572;SDS011;35476;52.466;13.364;2023-01-09T04:24:45;31.80;;;24.03;;
49572;SDS011;35476;52.466;13.364;2023-01-09T04:27:10;33.87;;;24.63;;
49572;SDS011;35476;52.466;13.364;2023-01-09T04:29:36;29.13;;;23.92;;
49572;SDS011;35476;52.466;13.364;2023-01-09T04:32:02;30.80;;;23.37;;
49572;SDS011;35476;52.466;13.364;2023-01-09T04:34:27;30.63;;;21.85;;
49572;SDS011;35476;52.466;13.364;2023-01-09T04:36:52;30.47;;;23.43;;
49572;SDS011;35476;52.466;13.364;2023-01-09T04:39:18;30.23;;;23.38;;
49572;SDS011;35476;52.466;13.364;2023-01-09T04:41:43;31.33;;;24.07;;
49572;SDS011;35476;52.466;13.364;2023-01-09T04:44:15;30.02;;;24.33;;
49572;SDS011;35476;52.466;13.364;2023-01-09T04:46:41;32.22;;;23.88;;
49572;SDS011;35476;52.466;13.364;2023-01-09T04:49:06;31.92;;;24.23;;
49572;SDS011;35476;52.466;13.364;2023-01-09T04:51:31;34.90;;;26.33;;
49572;SDS011;35476;52.466;13.364;2023-01-09T04:53:56;36.25;;;24.77;;
49572;SDS011;35476;52.466;13.364;2023-01-09T04:56:22;33.38;;;24.30;;
49572;SDS011;35476;52.466;13.364;2023-01-09T04:58:47;35.07;;;25.40;;
49572;SDS011;35476;52.466;13.364;2023-01-09T05:01:12;31.67;;;23.97;;
49572;SDS011;35476;52.466;13.364;2023-01-09T05:03:37;37.58;;;25.67;;
49572;SDS011;35476;52.466;13.364;2023-01-09T05:06:02;31.57;;;24.43;;
49572;SDS011;35476;52.466;13.364;2023-01-09T05:08:28;41.08;;;26.95;;
49572;SDS011;35476;52.466;13.364;2023-01-09T05:10:53;35.35;;;25.60;;
49572;SDS011;35476;52.466;13.364;2023-01-09T05:13:18;35.50;;;24.93;;
49572;SDS011;35476;52.466;13.364;2023-01-09T05:15:43;33.20;;;24.50;;
49572;SDS011;35476;52.466;13.364;2023-01-09T05:18:09;34.10;;;25.80;;
49572;SDS011;35476;52.466;13.364;2023-01-09T05:20:34;36.23;;;24.33;;
49572;SDS011;35476;52.466;13.364;2023-01-09T05:22:59;37.90;;;27.43;;
49572;SDS011;35476;52.466;13.364;2023-01-09T05:25:24;44.33;;;26.70;;
49572;SDS011;35476;52.466;13.364;2023-01-09T05:27:49;41.87;;;28.60;;
49572;SDS011;35476;52.466;13.364;2023-01-09T05:30:15;42.07;;;27.00;;
49572;SDS011;35476;52.466;13.364;2023-01-09T05:32:40;39.65;;;25.85;;
49572;SDS011;35476;52.466;13.364;2023-01-09T05:35:05;47.07;;;27.73;;
49572;SDS011;35476;52.466;13.364;2023-01-09T05:37:31;41.70;;;26.73;;
49572;SDS011;35476;52.466;13.364;2023-01-09T05:39:56;45.97;;;26.93;;
49572;SDS011;35476;52.466;13.364;2023-01-09T05:42:21;43.10;;;27.00;;
49572;SDS011;35476;52.466;13.364;2023-01-09T05:44:46;33.37;;;24.80;;
49572;SDS011;35476;52.466;13.364;2023-01-09T05:47:11;45.35;;;26.17;;
49572;SDS011;35476;52.466;13.364;2023-01-09T05:49:37;38.67;;;26.23;;
49572;SDS011;35476;52.466;13.364;2023-01-09T05:52:02;45.75;;;27.15;;
49572;SDS011;35476;52.466;13.364;2023-01-09T05:54:27;46.63;;;29.13;;
49572;SDS011;35476;52.466;13.364;2023-01-09T05:56:52;46.37;;;27.20;;
49572;SDS011;35476;52.466;13.364;2023-01-09T05:59:18;48.60;;;29.33;;
49572;SDS011;35476;52.466;13.364;2023-01-09T06:01:43;46.05;;;28.25;;
49572;SDS011;35476;52.466;13.364;2023-01-09T06:04:08;47.03;;;26.88;;
49572;SDS011;35476;52.466;13.364;2023-01-09T06:06:34;52.27;;;31.40;;
49572;SDS011;35476;52.466;13.364;2023-01-09T06:08:59;49.43;;;30.43;;
49572;SDS011;35476;52.466;13.364;2023-01-09T06:11:24;48.78;;;30.38;;
49572;SDS011;35476;52.466;13.364;2023-01-09T06:13:49;54.57;;;30.30;;
49572;SDS011;35476;52.466;13.364;2023-01-09T06:16:14;50.33;;;30.27;;
49572;SDS011;35476;52.466;13.364;2023-01-09T06:18:40;61.05;;;32.63;;
49572;SDS011;35476;52.466;13.364;2023-01-09T06:21:05;51.53;;;32.53;;
49572;SDS011;35476;52.466;13.364;2023-01-09T06:23:30;51.20;;;31.23;;
49572;SDS011;35476;52.466;13.364;2023-01-09T06:25:55;56.53;;;31.80;;
49572;SDS011;35476;52.466;13.364;2023-01-09T06:28:20;55.50;;;32.42;;
49572;SDS011;35476;52.466;13.364;2023-01-09T06:30:48;56.50;;;33.17;;
49572;SDS011;35476;52.466;13.364;2023-01-09T06:33:14;49.75;;;30.35;;
49572;SDS011;35476;52.466;13.364;2023-01-09T06:35:39;51.20;;;29.73;;
49572;SDS011;35476;52.466;13.364;2023-01-09T06:38:04;58.93;;;31.63;;
49572;SDS011;35476;52.466;13.364;2023-01-09T06:40:30;62.00;;;33.65;;
49572;SDS011;35476;52.466;13.364;2023-01-09T06:42:55;60.87;;;33.57;;
49572;SDS011;35476;52.466;13.364;2023-01-09T06:45:20;58.63;;;33.65;;
49572;SDS011;35476;52.466;13.364;2023-01-09T06:47:45;59.33;;;32.87;;
49572;SDS011;35476;52.466;13.364;2023-01-09T06:50:11;61.35;;;32.15;;
49572;SDS011;35476;52.466;13.364;2023-01-09T06:52:37;66.85;;;33.55;;
49572;SDS011;35476;52.466;13.364;2023-01-09T06:55:02;59.78;;;34.08;;
49572;SDS011;35476;52.466;13.364;2023-01-09T06:57:27;66.03;;;34.95;;
49572;SDS011;35476;52.466;13.364;2023-01-09T06:59:52;70.75;;;34.03;;
49572;SDS011;35476;52.466;13.364;2023-01-09T07:02:19;58.15;;;30.05;;
49572;SDS011;35476;52.466;13.364;2023-01-09T07:04:44;68.38;;;32.63;;
49572;SDS011;35476;52.466;13.364;2023-01-09T07:07:09;68.75;;;34.60;;
49572;SDS011;35476;52.466;13.364;2023-01-09T07:09:34;62.17;;;33.43;;
49572;SDS011;35476;52.466;13.364;2023-01-09T07:12:00;68.87;;;36.13;;
49572;SDS011;35476;52.466;13.364;2023-01-09T07:14:25;69.07;;;35.80;;
49572;SDS011;35476;52.466;13.364;2023-01-09T07:16:50;57.47;;;34.90;;
49572;SDS011;35476;52.466;13.364;2023-01-09T07:19:15;60.80;;;35.10;;
49572;SDS011;35476;52.466;13.364;2023-01-09T07:21:40;74.47;;;36.58;;
49572;SDS011;35476;52.466;13.364;2023-01-09T07:24:06;66.82;;;35.85;;
49572;SDS011;35476;52.466;13.364;2023-01-09T07:26:31;65.15;;;36.47;;
49572;SDS011;35476;52.466;13.364;2023-01-09T07:28:56;63.73;;;35.67;;
49572;SDS011;35476;52.466;13.364;2023-01-09T07:31:21;62.07;;;35.03;;
49572;SDS011;35476;52.466;13.364;2023-01-09T07:33:46;57.90;;;33.27;;
49572;SDS011;35476;52.466;13.364;2023-01-09T07:36:12;65.20;;;36.87;;
49572;SDS011;35476;52.466;13.364;2023-01-09T07:38:37;65.95;;;34.40;;
49572;SDS011;35476;52.466;13.364;2023-01-09T07:41:03;58.85;;;34.63;;
49572;SDS011;35476;52.466;13.364;2023-01-09T07:43:28;58.60;;;33.45;;
49572;SDS011;35476;52.466;13.364;2023-01-09T07:45:54;68.03;;;37.83;;
49572;SDS011;35476;52.466;13.364;2023-01-09T07:48:19;56.30;;;32.67;;
49572;SDS011;35476;52.466;13.364;2023-01-09T07:50:44;66.07;;;34.80;;
49572;SDS011;35476;52.466;13.364;2023-01-09T07:53:09;65.27;;;34.70;;
49572;SDS011;35476;52.466;13.364;2023-01-09T07:55:34;59.93;;;33.43;;
49572;SDS011;35476;52.466;13.364;2023-01-09T07:57:59;61.33;;;33.58;;
49572;SDS011;35476;52.466;13.364;2023-01-09T08:00:25;70.65;;;37.83;;
49572;SDS011;35476;52.466;13.364;2023-01-09T08:02:51;67.32;;;36.40;;
49572;SDS011;35476;52.466;13.364;2023-01-09T08:05:17;70.90;;;36.28;;
49572;SDS011;35476;52.466;13.364;2023-01-09T08:07:43;59.78;;;32.97;;
49572;SDS011;35476;52.466;13.364;2023-01-09T08:10:08;70.03;;;35.67;;
49572;SDS011;35476;52.466;13.364;2023-01-09T08:12:34;67.35;;;34.20;;
49572;SDS011;35476;52.466;13.364;2023-01-09T08:14:59;61.88;;;33.60;;
49572;SDS011;35476;52.466;13.364;2023-01-09T08:17:25;64.57;;;34.90;;
49572;SDS011;35476;52.466;13.364;2023-01-09T08:19:50;71.77;;;35.67;;
49572;SDS011;35476;52.466;13.364;2023-01-09T08:22:15;64.20;;;35.67;;
49572;SDS011;35476;52.466;13.364;2023-01-09T08:24:40;61.77;;;34.20;;
49572;SDS011;35476;52.466;13.364;2023-01-09T08:27:05;62.53;;;33.80;;
49572;SDS011;35476;52.466;13.364;2023-01-09T08:29:31;59.60;;;32.97;;
49572;SDS011;35476;52.466;13.364;2023-01-09T08:31:56;65.68;;;34.80;;
49572;SDS011;35476;52.466;13.364;2023-01-09T08:34:21;63.63;;;35.80;;
49572;SDS011;35476;52.466;13.364;2023-01-09T08:36:46;61.42;;;33.40;;
49572;SDS011;35476;52.466;13.364;2023-01-09T08:39:12;59.92;;;33.10;;
49572;SDS011;35476;52.466;13.364;2023-01-09T08:41:37;68.43;;;34.70;;
49572;SDS011;35476;52.466;13.364;2023-01-09T08:44:21;70.60;;;35.65;;
49572;SDS011;35476;52.466;13.364;2023-01-09T08:47:04;64.70;;;34.28;;
49572;SDS011;35476;52.466;13.364;2023-01-09T08:49:30;63.75;;;34.63;;
49572;SDS011;35476;52.466;13.364;2023-01-09T08:51:55;62.47;;;33.05;;
49572;SDS011;35476;52.466;13.364;2023-01-09T08:54:20;58.33;;;32.80;;
49572;SDS011;35476;52.466;13.364;2023-01-09T08:56:46;56.95;;;31.33;;
49572;SDS011;35476;52.466;13.364;2023-01-09T08:59:11;71.50;;;34.83;;
49572;SDS011;35476;52.466;13.364;2023-01-09T09:01:36;63.95;;;34.75;;
49572;SDS011;35476;52.466;13.364;2023-01-09T09:04:02;53.10;;;31.73;;
49572;SDS011;35476;52.466;13.364;2023-01-09T09:06:29;56.30;;;32.75;;
49572;SDS011;35476;52.466;13.364;2023-01-09T09:08:54;65.83;;;33.80;;
49572;SDS011;35476;52.466;13.364;2023-01-09T09:11:20;62.58;;;32.78;;
49572;SDS011;35476;52.466;13.364;2023-01-09T09:13:45;63.05;;;32.67;;
49572;SDS011;35476;52.466;13.364;2023-01-09T09:16:10;57.42;;;30.90;;
49572;SDS011;35476;52.466;13.364;2023-01-09T09:18:35;59.30;;;29.33;;
49572;SDS011;35476;52.466;13.364;2023-01-09T09:21:01;57.37;;;31.50;;
49572;SDS011;35476;52.466;13.364;2023-01-09T09:23:26;56.10;;;31.17;;
49572;SDS011;35476;52.466;13.364;2023-01-09T09:25:51;64.68;;;32.97;;
49572;SDS011;35476;52.466;13.364;2023-01-09T09:28:16;56.13;;;31.30;;
49572;SDS011;35476;52.466;13.364;2023-01-09T09:30:41;62.57;;;32.30;;
49572;SDS011;35476;52.466;13.364;2023-01-09T09:33:07;65.82;;;33.03;;
49572;SDS011;35476;52.466;13.364;2023-01-09T09:35:32;61.72;;;35.38;;
49572;SDS011;35476;52.466;13.364;2023-01-09T09:38:01;66.05;;;35.17;;
49572;SDS011;35476;52.466;13.364;2023-01-09T09:48:34;65.38;;;35.20;;
49572;SDS011;35476;52.466;13.364;2023-01-09T09:51:07;66.47;;;34.05;;
49572;SDS011;35476;52.466;13.364;2023-01-09T09:56:04;59.40;;;34.55;;
49572;SDS011;35476;52.466;13.364;2023-01-09T09:58:36;66.22;;;34.78;;
49572;SDS011;35476;52.466;13.364;2023-01-09T10:01:02;51.83;;;28.25;;
49572;SDS011;35476;52.466;13.364;2023-01-09T10:05:56;57.40;;;30.65;;
49572;SDS011;35476;52.466;13.364;2023-01-09T10:10:51;44.53;;;26.97;;
49572;SDS011;35476;52.466;13.364;2023-01-09T10:13:17;40.85;;;25.65;;
49572;SDS011;35476;52.466;13.364;2023-01-09T10:18:55;47.90;;;27.27;;
49572;SDS011;35476;52.466;13.364;2023-01-09T10:21:22;33.75;;;21.90;;
49572;SDS011;35476;52.466;13.364;2023-01-09T10:26:36;38.78;;;23.20;;
49572;SDS011;35476;52.466;13.364;2023-01-09T10:29:08;35.90;;;20.67;;
49572;SDS011;35476;52.466;13.364;2023-01-09T10:31:44;33.58;;;20.27;;
49572;SDS011;35476;52.466;13.364;2023-01-09T10:39:02;25.67;;;17.27;;
49572;SDS011;35476;52.466;13.364;2023-01-09T10:46:27;29.80;;;19.92;;
49572;SDS011;35476;52.466;13.364;2023-01-09T10:48:59;31.35;;;18.52;;
49572;SDS011;35476;52.466;13.364;2023-01-09T10:51:33;25.35;;;16.50;;
49572;SDS011;35476;52.466;13.364;2023-01-09T10:54:01;21.02;;;15.60;;
49572;SDS011;35476;52.466;13.364;2023-01-09T10:56:29;20.15;;;15.60;;
49572;SDS011;35476;52.466;13.364;2023-01-09T10:58:55;20.48;;;15.48;;
49572;SDS011;35476;52.466;13.364;2023-01-09T11:01:31;20.73;;;15.30;;
49572;SDS011;35476;52.466;13.364;2023-01-09T11:03:57;18.75;;;14.10;;
49572;SDS011;35476;52.466;13.364;2023-01-09T11:11:34;19.02;;;11.57;;
49572;SDS011;35476;52.466;13.364;2023-01-09T11:14:11;15.85;;;11.70;;
49572;SDS011;35476;52.466;13.364;2023-01-09T11:16:37;16.00;;;11.88;;
49572;SDS011;35476;52.466;13.364;2023-01-09T11:19:02;13.70;;;10.90;;
49572;SDS011;35476;52.466;13.364;2023-01-09T11:21:35;15.27;;;11.33;;
49572;SDS011;35476;52.466;13.364;2023-01-09T11:26:42;11.43;;;9.40;;
49572;SDS011;35476;52.466;13.364;2023-01-09T11:29:15;12.65;;;7.88;;
49572;SDS011;35476;52.466;13.364;2023-01-09T11:31:41;10.73;;;7.17;;
49572;SDS011;35476;52.466;13.364;2023-01-09T11:34:16;9.13;;;6.78;;
49572;SDS011;35476;52.466;13.364;2023-01-09T11:36:42;11.07;;;7.55;;
49572;SDS011;35476;52.466;13.364;2023-01-09T11:39:16;9.45;;;7.30;;
49572;SDS011;35476;52.466;13.364;2023-01-09T11:41:43;8.85;;;7.05;;
49572;SDS011;35476;52.466;13.364;2023-01-09T11:44:09;8.27;;;6.28;;
49572;SDS011;35476;52.466;13.364;2023-01-09T11:46:39;9.13;;;6.15;;
49572;SDS011;35476;52.466;13.364;2023-01-09T11:49:19;8.88;;;6.28;;
49572;SDS011;35476;52.466;13.364;2023-01-09T11:51:47;8.45;;;4.78;;
49572;SDS011;35476;52.466;13.364;2023-01-09T11:54:31;7.72;;;5.00;;
49572;SDS011;35476;52.466;13.364;2023-01-09T11:56:59;5.82;;;5.05;;
49572;SDS011;35476;52.466;13.364;2023-01-09T11:59:25;9.77;;;4.80;;
49572;SDS011;35476;52.466;13.364;2023-01-09T12:07:11;8.13;;;4.23;;
49572;SDS011;35476;52.466;13.364;2023-01-09T12:14:45;7.47;;;2.90;;
49572;SDS011;35476;52.466;13.364;2023-01-09T12:20:04;8.52;;;3.03;;
49572;SDS011;35476;52.466;13.364;2023-01-09T12:25:08;9.57;;;2.83;;
49572;SDS011;35476;52.466;13.364;2023-01-09T12:45:42;4.60;;;2.88;;
49572;SDS011;35476;52.466;13.364;2023-01-09T12:48:13;5.93;;;3.67;;
49572;SDS011;35476;52.466;13.364;2023-01-09T12:50:56;4.25;;;2.63;;
49572;SDS011;35476;52.466;13.364;2023-01-09T12:53:24;6.22;;;2.33;;
49572;SDS011;35476;52.466;13.364;2023-01-09T12:55:52;4.63;;;2.28;;
49572;SDS011;35476;52.466;13.364;2023-01-09T12:58:29;4.15;;;2.60;;
49572;SDS011;35476;52.466;13.364;2023-01-09T13:00:55;5.05;;;2.80;;
49572;SDS011;35476;52.466;13.364;2023-01-09T13:04:04;6.30;;;2.40;;
49572;SDS011;35476;52.466;13.364;2023-01-09T13:06:14;7.78;;;2.72;;
49572;SDS011;35476;52.466;13.364;2023-01-09T13:08:41;7.53;;;2.80;;
49572;SDS011;35476;52.466;13.364;2023-01-09T13:11:09;5.88;;;3.80;;
49572;SDS011;35476;52.466;13.364;2023-01-09T13:14:00;4.22;;;2.17;;
49572;SDS011;35476;52.466;13.364;2023-01-09T13:16:27;6.30;;;2.53;;
49572;SDS011;35476;52.466;13.364;2023-01-09T13:18:57;4.30;;;2.47;;
49572;SDS011;35476;52.466;13.364;2023-01-09T13:21:23;4.38;;;2.10;;
49572;SDS011;35476;52.466;13.364;2023-01-09T13:24:12;3.42;;;2.10;;
49572;SDS011;35476;52.466;13.364;2023-01-09T13:26:41;5.28;;;2.25;;
49572;SDS011;35476;52.466;13.364;2023-01-09T13:34:20;9.18;;;2.50;;
49572;SDS011;35476;52.466;13.364;2023-01-09T13:36:48;5.22;;;2.63;;
49572;SDS011;35476;52.466;13.364;2023-01-09T13:41:53;7.88;;;2.40;;
49572;SDS011;35476;52.466;13.364;2023-01-09T13:44:39;4.68;;;2.33;;
49572;SDS011;35476;52.466;13.364;2023-01-09T13:47:12;4.30;;;2.60;;
49572;SDS011;35476;52.466;13.364;2023-01-09T13:57:18;4.77;;;2.23;;
49572;SDS011;35476;52.466;13.364;2023-01-09T13:59:48;4.22;;;2.53;;
49572;SDS011;35476;52.466;13.364;2023-01-09T14:04:57;4.63;;;2.30;;
49572;SDS011;35476;52.466;13.364;2023-01-09T14:07:33;6.93;;;2.55;;
49572;SDS011;35476;52.466;13.364;2023-01-09T14:09:59;10.45;;;3.08;;
49572;SDS011;35476;52.466;13.364;2023-01-09T14:12:25;4.80;;;2.45;;
49572;SDS011;35476;52.466;13.364;2023-01-09T14:14:52;5.45;;;2.13;;
49572;SDS011;35476;52.466;13.364;2023-01-09T14:17:29;5.22;;;2.72;;
49572;SDS011;35476;52.466;13.364;2023-01-09T14:19:56;3.85;;;2.03;;
49572;SDS011;35476;52.466;13.364;2023-01-09T14:22:23;8.73;;;2.75;;
49572;SDS011;35476;52.466;13.364;2023-01-09T14:24:48;5.80;;;2.30;;
49572;SDS011;35476;52.466;13.364;2023-01-09T14:28:18;6.75;;;2.78;;
49572;SDS011;35476;52.466;13.364;2023-01-09T14:30:28;5.25;;;2.63;;
49572;SDS011;35476;52.466;13.364;2023-01-09T14:35:26;7.57;;;3.97;;
49572;SDS011;35476;52.466;13.364;2023-01-09T14:37:58;4.40;;;2.60;;
49572;SDS011;35476;52.466;13.364;2023-01-09T14:40:25;12.45;;;3.15;;
49572;SDS011;35476;52.466;13.364;2023-01-09T14:42:51;3.63;;;2.35;;
49572;SDS011;35476;52.466;13.364;2023-01-09T14:45:17;7.07;;;2.85;;
49572;SDS011;35476;52.466;13.364;2023-01-09T14:47:47;6.90;;;2.50;;
49572;SDS011;35476;52.466;13.364;2023-01-09T14:55:30;4.60;;;1.93;;
49572;SDS011;35476;52.466;13.364;2023-01-09T15:00:46;3.85;;;1.80;;
49572;SDS011;35476;52.466;13.364;2023-01-09T15:03:11;7.30;;;2.25;;
49572;SDS011;35476;52.466;13.364;2023-01-09T15:05:37;4.45;;;2.00;;
49572;SDS011;35476;52.466;13.364;2023-01-09T15:08:02;5.30;;;1.90;;
49572;SDS011;35476;52.466;13.364;2023-01-09T15:10:29;5.00;;;2.03;;
49572;SDS011;35476;52.466;13.364;2023-01-09T15:12:56;6.28;;;2.10;;
49572;SDS011;35476;52.466;13.364;2023-01-09T15:15:21;4.13;;;2.50;;
49572;SDS011;35476;52.466;13.364;2023-01-09T15:17:53;7.65;;;3.28;;
49572;SDS011;35476;52.466;13.364;2023-01-09T15:20:28;4.28;;;2.70;;
49572;SDS011;35476;52.466;13.364;2023-01-09T15:22:55;4.80;;;2.63;;
49572;SDS011;35476;52.466;13.364;2023-01-09T15:25:33;6.57;;;2.38;;
49572;SDS011;35476;52.466;13.364;2023-01-09T15:27:59;8.63;;;2.88;;
49572;SDS011;35476;52.466;13.364;2023-01-09T15:30:26;7.47;;;2.38;;
49572;SDS011;35476;52.466;13.364;2023-01-09T15:32:59;9.38;;;2.53;;
49572;SDS011;35476;52.466;13.364;2023-01-09T15:35:24;9.23;;;2.70;;
49572;SDS011;35476;52.466;13.364;2023-01-09T15:37:51;9.65;;;2.80;;
49572;SDS011;35476;52.466;13.364;2023-01-09T15:40:20;5.85;;;3.08;;
49572;SDS011;35476;52.466;13.364;2023-01-09T15:42:47;5.72;;;2.70;;
49572;SDS011;35476;52.466;13.364;2023-01-09T15:45:38;6.68;;;3.10;;
49572;SDS011;35476;52.466;13.364;2023-01-09T15:50:38;7.72;;;2.97;;
49572;SDS011;35476;52.466;13.364;2023-01-09T15:53:04;5.35;;;2.83;;
49572;SDS011;35476;52.466;13.364;2023-01-09T15:55:30;3.47;;;2.40;;
49572;SDS011;35476;52.466;13.364;2023-01-09T15:57:59;6.22;;;3.00;;
49572;SDS011;35476;52.466;13.364;2023-01-09T16:02:53;3.45;;;2.25;;
49572;SDS011;35476;52.466;13.364;2023-01-09T16:05:37;10.07;;;3.03;;
49572;SDS011;35476;52.466;13.364;2023-01-09T16:08:03;6.50;;;2.63;;
49572;SDS011;35476;52.466;13.364;2023-01-09T16:10:34;3.30;;;2.03;;
49572;SDS011;35476;52.466;13.364;2023-01-09T16:13:00;3.78;;;2.20;;
49572;SDS011;35476;52.466;13.364;2023-01-09T16:15:25;7.72;;;2.03;;
49572;SDS011;35476;52.466;13.364;2023-01-09T16:20:35;2.90;;;1.80;;
49572;SDS011;35476;52.466;13.364;2023-01-09T16:23:00;7.97;;;2.70;;
49572;SDS011;35476;52.466;13.364;2023-01-09T16:25:30;4.75;;;2.38;;
49572;SDS011;35476;52.466;13.364;2023-01-09T16:30:55;4.18;;;2.67;;
49572;SDS011;35476;52.466;13.364;2023-01-09T16:33:22;4.13;;;2.13;;
49572;SDS011;35476;52.466;13.364;2023-01-09T16:35:48;5.88;;;2.17;;
49572;SDS011;35476;52.466;13.364;2023-01-09T16:38:14;6.60;;;2.20;;